Time;durP1;ratioP1;P1;durP2;ratioP2;P2;SDS_P1;SDS_P2;PMS_P1;PMS_P2;Temp;Humidity;BMP_temperature;BMP_pressure;BME280_temperature;BME280_humidity;BME280_pressure;Samples;Min_cycle;Max_cycle;Signal;HPM_P1;HPM_P2
2024/04/18 00:02:04;;;;;;;;;;;;;;;3.87;100.00;95929.03;5433832;26;19988;-68
2024/04/18 00:04:30;;;;;;;;;;;;;;;3.84;100.00;95938.00;5403459;26;19982;-68
2024/04/18 00:06:56;;;;;;;;;;;;;;;3.70;100.00;95928.50;5433906;26;20054;-69
2024/04/18 00:09:22;;;;;;;;;;;;;;;3.63;100.00;95933.63;5433912;26;19986;-68
2024/04/18 00:11:48;;;;;;;;;;;;;;;3.58;100.00;95930.78;5433827;26;20164;-73
2024/04/18 00:14:14;;;;;;;;;;;;;;;3.59;100.00;95924.63;5433778;26;20165;-75
2024/04/18 00:16:39;;;;;;;;;;;;;;;3.65;100.00;95926.47;5433730;26;19989;-74
2024/04/18 00:19:06;;;;;;;;;;;;;;;3.67;100.00;95923.66;5433769;26;19971;-76
2024/04/18 00:21:33;;;;;;;;;;;;;;;3.63;100.00;95923.25;5433671;26;19967;-76
2024/04/18 00:23:59;;;;;;;;;;;;;;;3.59;100.00;95926.38;5433521;26;19957;-75
2024/04/18 00:26:24;;;;;;;;;;;;;;;3.55;100.00;95927.75;5403280;26;20000;-74
2024/04/18 00:28:50;;;;;;;;;;;;;;;3.55;100.00;95938.13;5433522;26;19955;-74
2024/04/18 00:31:16;;;;;;;;;;;;;;;3.56;100.00;95924.97;5403173;26;19979;-73
2024/04/18 00:33:42;;;;;;;;;;;;;;;3.60;100.00;95925.41;5433554;26;19994;-71
2024/04/18 00:36:09;;;;;;;;;;;;;;;3.65;100.00;95926.47;5433450;26;20003;-71
2024/04/18 00:38:35;;;;;;;;;;;;;;;3.69;100.00;95923.47;5433489;26;19955;-70
2024/04/18 00:41:01;;;;;;;;;;;;;;;3.71;100.00;95922.31;5433338;26;20030;-70
2024/04/18 00:43:27;;;;;;;;;;;;;;;3.68;100.00;95919.31;5433310;26;19960;-70
2024/04/18 00:45:57;;;;;;;;;;;;;;;3.68;100.00;95920.09;5433413;26;19955;-70
2024/04/18 00:48:24;;;;;;;;;;;;;;;3.69;100.00;95918.28;5433349;26;19961;-73
2024/04/18 00:50:52;;;;;;;;;;;;;;;3.66;100.00;95915.09;5433343;26;20089;-67
2024/04/18 00:53:18;;;;;;;;;;;;;;;3.64;100.00;95918.88;5433221;26;19945;-68
2024/04/18 00:55:43;;;;;;;;;;;;;;;3.57;100.00;95916.22;5433247;26;19945;-68
2024/04/18 00:58:10;;;;;;;;;;;;;;;3.56;100.00;95913.81;5433173;26;20004;-68
2024/04/18 01:00:36;;;;;;;;;;;;;;;3.56;100.00;95917.19;5433121;26;20061;-67
2024/04/18 01:03:01;;;;;;;;;;;;;;;3.58;100.00;95917.81;5432992;26;20025;-68
2024/04/18 01:05:27;;;;;;;;;;;;;;;3.61;100.00;95921.81;5433113;26;19946;-69
2024/04/18 01:07:53;;;;;;;;;;;;;;;3.62;100.00;95919.03;5431803;26;19946;-78
2024/04/18 01:10:19;;;;;;;;;;;;;;;3.68;100.00;95919.31;5373211;26;19961;-74
2024/04/18 01:12:58;;;;;;;;;;;;;;;3.72;100.00;95920.53;5433038;26;19949;-75
2024/04/18 01:15:25;;;;;;;;;;;;;;;3.74;100.00;95926.31;5432960;26;19945;-75
2024/04/18 01:17:51;;;;;;;;;;;;;;;3.73;100.00;95920.31;5432928;26;20086;-76
2024/04/18 01:20:18;;;;;;;;;;;;;;;3.73;100.00;95917.72;5432806;26;19984;-75
2024/04/18 01:22:43;;;;;;;;;;;;;;;3.74;100.00;95919.34;5432744;26;19952;-74
2024/04/18 01:25:09;;;;;;;;;;;;;;;3.76;100.00;95922.56;5432821;26;19987;-68
2024/04/18 01:27:35;;;;;;;;;;;;;;;3.77;100.00;95918.16;5432807;26;20078;-73
2024/04/18 01:30:01;;;;;;;;;;;;;;;3.74;100.00;95919.34;5432753;26;19951;-74
2024/04/18 01:32:29;;;;;;;;;;;;;;;3.73;100.00;95925.50;5432827;26;19951;-73
2024/04/18 01:34:55;;;;;;;;;;;;;;;3.77;100.00;95926.75;5433017;26;19955;-73
2024/04/18 01:37:20;;;;;;;;;;;;;;;3.78;100.00;95922.34;5401992;26;19976;-74
2024/04/18 01:39:46;;;;;;;;;;;;;;;3.81;100.00;95929.78;5432718;26;20039;-73
2024/04/18 01:42:12;;;;;;;;;;;;;;;3.82;100.00;95926.16;5432609;26;19957;-73
2024/04/18 01:44:38;;;;;;;;;;;;;;;3.72;100.00;95921.31;5432473;26;19961;-74
2024/04/18 01:47:04;;;;;;;;;;;;;;;3.61;100.00;95932.19;5432448;26;20154;-73
2024/04/18 01:49:30;;;;;;;;;;;;;;;3.51;100.00;95931.69;5432517;26;19979;-73
2024/04/18 01:51:55;;;;;;;;;;;;;;;3.47;100.00;95933.88;5430764;26;20144;-73
2024/04/18 01:54:21;;;;;;;;;;;;;;;3.48;100.00;95939.84;5401855;26;19973;-74
2024/04/18 01:56:47;;;;;;;;;;;;;;;3.46;100.00;95932.25;5432386;26;19943;-73
2024/04/18 01:59:13;;;;;;;;;;;;;;;3.48;100.00;95940.66;5432237;26;19949;-74
2024/04/18 02:01:39;;;;;;;;;;;;;;;3.45;100.00;95930.66;5401770;26;19957;-73
2024/04/18 02:04:04;;;;;;;;;;;;;;;3.44;100.00;95932.47;5401709;26;20052;-73
2024/04/18 02:06:30;;;;;;;;;;;;;;;3.42;100.00;95933.63;5432212;26;20250;-74
2024/04/18 02:08:56;;;;;;;;;;;;;;;3.44;100.00;95942.84;5401774;26;20192;-74
2024/04/18 02:11:22;;;;;;;;;;;;;;;3.47;100.00;95936.47;5432244;26;19986;-74
2024/04/18 02:13:48;;;;;;;;;;;;;;;3.50;100.00;95943.06;5432139;26;19959;-74
2024/04/18 02:16:13;;;;;;;;;;;;;;;3.50;100.00;95940.47;5432135;26;19968;-73
2024/04/18 02:18:39;;;;;;;;;;;;;;;3.51;100.00;95944.66;5431680;26;19994;-73
2024/04/18 02:21:05;;;;;;;;;;;;;;;3.50;100.00;95948.25;5401681;26;20162;-68
2024/04/18 02:23:31;;;;;;;;;;;;;;;3.49;100.00;95944.06;5431862;26;19975;-68
2024/04/18 02:25:57;;;;;;;;;;;;;;;3.49;100.00;95941.47;5431897;26;19965;-69
2024/04/18 02:28:23;;;;;;;;;;;;;;;3.42;100.00;95943.97;5431860;26;19973;-68
2024/04/18 02:30:49;;;;;;;;;;;;;;;3.35;100.00;95941.34;5431890;26;20083;-68
2024/04/18 02:33:15;;;;;;;;;;;;;;;3.30;100.00;95943.69;5431824;26;19954;-68
2024/04/18 02:35:41;;;;;;;;;;;;;;;3.23;100.00;95945.41;5431864;26;19954;-69
2024/04/18 02:38:07;;;;;;;;;;;;;;;3.15;100.00;95948.91;5431716;26;20019;-73
2024/04/18 02:40:33;;;;;;;;;;;;;;;3.08;100.00;95942.84;5431776;26;19946;-73
2024/04/18 02:42:59;;;;;;;;;;;;;;;3.10;100.00;95948.66;5431642;26;20016;-74
2024/04/18 02:45:25;;;;;;;;;;;;;;;3.19;100.00;95949.34;5431649;26;19997;-73
2024/04/18 02:47:50;;;;;;;;;;;;;;;3.25;100.00;95949.44;5431693;26;20068;-73
2024/04/18 02:50:16;;;;;;;;;;;;;;;3.32;100.00;95940.88;5431595;26;19991;-73
2024/04/18 02:52:42;;;;;;;;;;;;;;;3.41;100.00;95952.75;5431624;26;19973;-74
2024/04/18 02:55:08;;;;;;;;;;;;;;;3.43;100.00;95949.00;5431492;26;19949;-73
2024/04/18 02:57:34;;;;;;;;;;;;;;;3.47;100.00;95940.84;5431437;26;19955;-73
2024/04/18 03:00:00;;;;;;;;;;;;;;;3.51;100.00;95947.25;5400934;26;20180;-74
2024/04/18 03:02:26;;;;;;;;;;;;;;;3.55;100.00;95951.06;5401099;26;19961;-74
2024/04/18 03:04:52;;;;;;;;;;;;;;;3.59;100.00;95944.53;5431369;26;19973;-73
2024/04/18 03:07:18;;;;;;;;;;;;;;;3.57;100.00;95943.91;5431276;26;19981;-73
2024/04/18 03:09:44;;;;;;;;;;;;;;;3.51;100.00;95947.25;5431343;26;19957;-74
2024/04/18 03:12:09;;;;;;;;;;;;;;;3.52;100.00;95948.88;5431241;26;20077;-73
2024/04/18 03:14:35;;;;;;;;;;;;;;;3.53;100.00;95948.69;5400982;26;20183;-71
2024/04/18 03:17:01;;;;;;;;;;;;;;;3.57;100.00;95949.94;5400972;26;20139;-77
2024/04/18 03:19:27;;;;;;;;;;;;;;;3.60;100.00;95949.53;5431249;26;19965;-71
2024/04/18 03:21:53;;;;;;;;;;;;;;;3.62;100.00;95937.19;5431200;26;19992;-71
2024/04/18 03:24:20;;;;;;;;;;;;;;;3.64;100.00;95948.19;5431144;26;20095;-71
2024/04/18 03:26:46;;;;;;;;;;;;;;;3.58;100.00;95950.72;5431116;26;20095;-71
2024/04/18 03:29:12;;;;;;;;;;;;;;;3.45;100.00;95949.59;5430941;26;20077;-71
2024/04/18 03:31:40;;;;;;;;;;;;;;;3.40;100.00;95951.13;5430012;26;19974;-71
2024/04/18 03:34:06;;;;;;;;;;;;;;;3.40;100.00;95956.31;5430968;26;19984;-73
2024/04/18 03:36:34;;;;;;;;;;;;;;;3.39;100.00;95950.34;5430948;26;19955;-73
2024/04/18 03:39:01;;;;;;;;;;;;;;;3.43;100.00;95956.75;5430832;26;19958;-74
2024/04/18 03:41:26;;;;;;;;;;;;;;;3.49;100.00;95962.22;5430840;26;19977;-74
2024/04/18 03:43:53;;;;;;;;;;;;;;;3.52;100.00;95960.03;5430727;26;19961;-73
2024/04/18 03:46:19;;;;;;;;;;;;;;;3.53;100.00;95964.25;5430763;26;19984;-73
2024/04/18 03:48:45;;;;;;;;;;;;;;;3.53;100.00;95971.19;5400484;26;19958;-73
2024/04/18 03:51:11;;;;;;;;;;;;;;;3.51;100.00;95973.16;5371013;26;19958;-74
2024/04/18 03:53:37;;;;;;;;;;;;;;;3.47;100.00;95970.16;5430621;26;19943;-76
2024/04/18 03:56:03;;;;;;;;;;;;;;;3.48;100.00;95969.16;5430585;26;19979;-74
2024/04/18 03:58:29;;;;;;;;;;;;;;;3.53;100.00;95976.38;5430540;26;19975;-72
2024/04/18 04:00:54;;;;;;;;;;;;;;;3.56;100.00;95976.81;5430355;26;19957;-73
2024/04/18 04:03:21;;;;;;;;;;;;;;;3.58;100.00;95974.84;5399863;26;19963;-73
2024/04/18 04:05:46;;;;;;;;;;;;;;;3.58;100.00;95971.47;5430503;26;19958;-73
2024/04/18 04:08:12;;;;;;;;;;;;;;;3.52;100.00;95973.00;5430274;26;20019;-74
2024/04/18 04:10:39;;;;;;;;;;;;;;;3.45;100.00;95983.31;5430377;26;19972;-75
2024/04/18 04:13:05;;;;;;;;;;;;;;;3.40;100.00;95984.84;5430332;26;19953;-79
2024/04/18 04:15:31;;;;;;;;;;;;;;;3.39;100.00;95984.03;5400076;26;19965;-78
2024/04/18 04:17:57;;;;;;;;;;;;;;;3.35;100.00;95984.59;5430178;26;20007;-79
2024/04/18 04:20:25;;;;;;;;;;;;;;;3.34;100.00;95983.78;5430148;26;19965;-79
2024/04/18 04:22:51;;;;;;;;;;;;;;;3.33;100.00;95991.75;5399646;26;19976;-79
2024/04/18 04:25:16;;;;;;;;;;;;;;;3.31;100.00;95994.50;5430010;26;20097;-78
2024/04/18 04:27:42;;;;;;;;;;;;;;;3.32;100.00;95997.91;5430028;26;20173;-79
2024/04/18 04:30:09;;;;;;;;;;;;;;;3.34;100.00;96001.13;5399682;26;19970;-73
2024/04/18 04:32:34;;;;;;;;;;;;;;;3.38;100.00;96004.94;5429949;26;19961;-68
2024/04/18 04:35:00;;;;;;;;;;;;;;;3.37;100.00;96008.53;5429969;26;20016;-68
2024/04/18 04:37:26;;;;;;;;;;;;;;;3.34;100.00;96003.72;5429880;26;19958;-68
2024/04/18 04:39:52;;;;;;;;;;;;;;;3.28;100.00;96005.25;5399552;26;19996;-68
2024/04/18 04:42:18;;;;;;;;;;;;;;;3.26;100.00;96009.81;5432076;26;19951;-68
2024/04/18 04:44:44;;;;;;;;;;;;;;;3.22;100.00;96013.75;5433371;26;19949;-68
2024/04/18 04:47:09;;;;;;;;;;;;;;;3.21;100.00;96022.50;5433402;26;19973;-73
2024/04/18 04:49:35;;;;;;;;;;;;;;;3.24;100.00;96020.34;5402888;26;19972;-69
2024/04/18 04:52:03;;;;;;;;;;;;;;;3.31;100.00;96030.81;5433263;26;20169;-69
2024/04/18 04:54:29;;;;;;;;;;;;;;;3.36;100.00;96028.47;5433306;26;20003;-68
2024/04/18 04:56:55;;;;;;;;;;;;;;;3.40;100.00;96032.31;5433266;26;19989;-69
2024/04/18 04:59:20;;;;;;;;;;;;;;;3.42;100.00;96032.94;5402768;26;19967;-69
2024/04/18 05:01:46;;;;;;;;;;;;;;;3.47;100.00;96041.94;5433242;26;19980;-68
2024/04/18 05:04:13;;;;;;;;;;;;;;;3.50;100.00;96044.16;5433129;26;19985;-69
2024/04/18 05:06:38;;;;;;;;;;;;;;;3.52;100.00;96039.59;5433055;26;19986;-73
2024/04/18 05:09:04;;;;;;;;;;;;;;;3.54;100.00;96038.44;5433131;26;19948;-71
2024/04/18 05:11:30;;;;;;;;;;;;;;;3.59;100.00;96043.06;5433137;26;20018;-70
2024/04/18 05:13:56;;;;;;;;;;;;;;;3.61;100.00;96047.09;5433068;26;19955;-70
2024/04/18 05:16:22;;;;;;;;;;;;;;;3.59;100.00;96049.06;5432971;26;19992;-70
2024/04/18 05:18:48;;;;;;;;;;;;;;;3.55;100.00;96058.19;5433035;26;19956;-70
2024/04/18 05:21:13;;;;;;;;;;;;;;;3.57;100.00;96061.41;5432881;26;20033;-70
2024/04/18 05:23:39;;;;;;;;;;;;;;;3.61;100.00;96062.66;5432841;26;19981;-69
2024/04/18 05:26:05;;;;;;;;;;;;;;;3.68;100.00;96067.91;5432901;26;20027;-71
2024/04/18 05:28:40;;;;;;;;;;;;;;;3.75;100.00;96068.75;5432882;26;19959;-76
2024/04/18 05:31:07;;;;;;;;;;;;;;;3.73;100.00;96060.34;5432785;26;20154;-74
2024/04/18 05:33:33;;;;;;;;;;;;;;;3.78;100.00;96068.41;5433061;26;19982;-74
2024/04/18 05:35:59;;;;;;;;;;;;;;;3.84;100.00;96079.81;5432827;26;19977;-74
2024/04/18 05:38:25;;;;;;;;;;;;;;;3.86;100.00;96075.25;5432633;26;19954;-75
2024/04/18 05:40:51;;;;;;;;;;;;;;;3.90;100.00;96079.09;5432711;26;19973;-75
2024/04/18 05:43:17;;;;;;;;;;;;;;;3.97;100.00;96081.72;5432546;26;19970;-74
2024/04/18 05:45:44;;;;;;;;;;;;;;;4.03;100.00;96086.19;5432519;26;19957;-73
2024/04/18 05:48:09;;;;;;;;;;;;;;;4.10;100.00;96091.47;5432533;26;19976;-73
2024/04/18 05:50:35;;;;;;;;;;;;;;;4.16;100.00;96091.53;5432557;26;19991;-73
2024/04/18 05:53:01;;;;;;;;;;;;;;;4.21;100.00;96086.56;5431683;26;20002;-74
2024/04/18 05:55:27;;;;;;;;;;;;;;;4.28;100.00;96097.00;5432594;26;20152;-73
2024/04/18 05:57:53;;;;;;;;;;;;;;;4.32;100.00;96092.25;5432448;26;19982;-73
2024/04/18 06:00:19;;;;;;;;;;;;;;;4.34;100.00;96096.25;5432357;26;19964;-73
2024/04/18 06:02:44;;;;;;;;;;;;;;;4.38;100.00;96099.28;5402076;26;20030;-73
2024/04/18 06:05:10;;;;;;;;;;;;;;;4.38;100.00;96094.88;5432195;26;19972;-69
2024/04/18 06:07:36;;;;;;;;;;;;;;;4.39;100.00;96103.47;5432260;26;19949;-68
2024/04/18 06:10:02;;;;;;;;;;;;;;;4.36;100.00;96101.25;5372766;26;19951;-69
2024/04/18 06:12:28;;;;;;;;;;;;;;;4.33;100.00;96104.25;5432270;26;20079;-68
2024/04/18 06:14:54;;;;;;;;;;;;;;;4.33;100.00;96117.22;5432271;26;19973;-68
2024/04/18 06:17:20;;;;;;;;;;;;;;;4.36;100.00;96117.63;5432143;26;19973;-68
2024/04/18 06:19:49;;;;;;;;;;;;;;;4.41;100.00;96117.06;5401696;26;20203;-73
2024/04/18 06:22:15;;;;;;;;;;;;;;;4.43;100.00;96115.91;5431960;26;20163;-73
2024/04/18 06:24:41;;;;;;;;;;;;;;;4.41;100.00;96117.91;5431982;26;19999;-73
2024/04/18 06:27:07;;;;;;;;;;;;;;;4.40;100.00;96118.88;5431988;26;19984;-74
2024/04/18 06:29:33;;;;;;;;;;;;;;;4.45;100.00;96119.13;5432073;26;19968;-73
2024/04/18 06:31:59;;;;;;;;;;;;;;;4.46;100.00;96119.91;5432029;26;20083;-73
2024/04/18 06:34:25;;;;;;;;;;;;;;;4.52;100.00;96128.75;5431839;26;19990;-74
2024/04/18 06:36:50;;;;;;;;;;;;;;;4.56;100.00;96127.41;5401502;26;20175;-74
2024/04/18 06:39:16;;;;;;;;;;;;;;;4.59;100.00;96133.00;5431891;26;19971;-73
2024/04/18 06:41:42;;;;;;;;;;;;;;;4.58;100.00;96133.22;5431840;26;19965;-71
2024/04/18 06:44:08;;;;;;;;;;;;;;;4.56;100.00;96127.41;5431682;26;19971;-71
2024/04/18 06:46:35;;;;;;;;;;;;;;;4.58;100.00;96139.19;5401399;26;19958;-71
2024/04/18 06:49:00;;;;;;;;;;;;;;;4.59;100.00;96135.59;5431744;26;19977;-71
2024/04/18 06:51:26;;;;;;;;;;;;;;;4.60;100.00;96145.00;5429420;26;19967;-71
2024/04/18 06:53:52;;;;;;;;;;;;;;;4.63;100.00;96154.22;5431634;26;19956;-71
2024/04/18 06:56:18;;;;;;;;;;;;;;;4.66;100.00;96157.25;5431595;26;19948;-71
2024/04/18 06:58:44;;;;;;;;;;;;;;;4.72;100.00;96153.09;5431684;26;19976;-68
2024/04/18 07:01:10;;;;;;;;;;;;;;;4.80;100.00;96165.94;5431498;26;19981;-69
2024/04/18 07:03:36;;;;;;;;;;;;;;;4.88;100.00;96159.81;5431519;26;19955;-70
2024/04/18 07:06:02;;;;;;;;;;;;;;;4.96;100.00;96164.88;5429819;26;20015;-69
2024/04/18 07:08:27;;;;;;;;;;;;;;;5.02;100.00;96148.53;5431410;26;19949;-68
2024/04/18 07:10:53;;;;;;;;;;;;;;;5.11;100.00;96169.16;5431250;26;20060;-70
2024/04/18 07:13:19;;;;;;;;;;;;;;;5.64;100.00;96174.66;5431413;26;19949;-68
2024/04/18 07:15:45;;;;;;;;;;;;;;;6.05;100.00;96156.44;5431370;26;19968;-72
2024/04/18 07:18:11;;;;;;;;;;;;;;;6.06;100.00;96154.63;5431297;26;19967;-77
2024/04/18 07:20:37;;;;;;;;;;;;;;;5.93;100.00;96137.13;5431139;26;19982;-77
2024/04/18 07:23:03;;;;;;;;;;;;;;;5.81;100.00;96147.31;5400701;26;19962;-77
2024/04/18 07:25:29;;;;;;;;;;;;;;;5.72;100.00;96139.88;5431141;26;19975;-77
2024/04/18 07:27:55;;;;;;;;;;;;;;;5.62;100.00;96156.63;5400816;26;20124;-77
2024/04/18 07:30:21;;;;;;;;;;;;;;;5.55;100.00;96152.41;5431051;26;20003;-77
2024/04/18 07:32:47;;;;;;;;;;;;;;;5.48;100.00;96168.78;5431088;26;19994;-68
2024/04/18 07:35:12;;;;;;;;;;;;;;;5.42;100.00;96163.56;5430892;26;20107;-72
2024/04/18 07:37:38;;;;;;;;;;;;;;;5.38;100.00;96180.53;5371523;26;19961;-72
2024/04/18 07:40:18;;;;;;;;;;;;;;;5.33;100.00;96175.09;5430869;26;19953;-73
2024/04/18 07:42:45;;;;;;;;;;;;;;;5.31;100.00;96192.69;5430885;26;19963;-73
2024/04/18 07:45:11;;;;;;;;;;;;;;;5.42;100.00;96210.38;5430762;26;20175;-72
2024/04/18 07:47:37;;;;;;;;;;;;;;;5.58;100.00;96189.22;5371263;26;19981;-72
2024/04/18 07:50:03;;;;;;;;;;;;;;;5.69;100.00;96188.69;5400399;26;19954;-73
2024/04/18 07:52:29;;;;;;;;;;;;;;;5.80;100.00;96189.94;5400400;26;19952;-75
2024/04/18 07:54:55;;;;;;;;;;;;;;;5.80;100.00;96168.34;5430701;26;19999;-72
2024/04/18 07:57:21;;;;;;;;;;;;;;;5.69;100.00;96175.69;5430626;26;19966;-72
2024/04/18 07:59:47;;;;;;;;;;;;;;;5.68;100.00;96212.28;5430609;26;19984;-72
2024/04/18 08:02:13;;;;;;;;;;;;;;;5.73;100.00;96201.31;5430477;26;20034;-72
2024/04/18 08:04:39;;;;;;;;;;;;;;;5.80;100.00;96209.97;5430486;26;19981;-72
2024/04/18 08:07:04;;;;;;;;;;;;;;;5.83;100.00;96201.75;5430491;26;19987;-73
2024/04/18 08:09:30;;;;;;;;;;;;;;;5.89;100.00;96208.78;5430500;26;19973;-78
2024/04/18 08:11:56;;;;;;;;;;;;;;;5.95;100.00;96209.84;5430451;26;19976;-74
2024/04/18 08:14:22;;;;;;;;;;;;;;;6.01;100.00;96204.66;5400071;26;19975;-71
2024/04/18 08:16:48;;;;;;;;;;;;;;;6.08;100.00;96192.47;5400405;26;19982;-71
2024/04/18 08:19:14;;;;;;;;;;;;;;;6.15;100.00;96199.50;5403276;26;19972;-71
2024/04/18 08:21:40;;;;;;;;;;;;;;;6.19;100.00;96214.53;5403311;26;19960;-71
2024/04/18 08:24:07;;;;;;;;;;;;;;;6.17;100.00;96234.75;5433656;26;19961;-72
2024/04/18 08:26:33;;;;;;;;;;;;;;;6.04;100.00;96242.53;5433750;26;19984;-71
2024/04/18 08:28:59;;;;;;;;;;;;;;;5.86;100.00;96262.03;5403462;26;19953;-77
2024/04/18 08:31:25;;;;;;;;;;;;;;;5.68;100.00;96257.31;5433641;26;19953;-72
2024/04/18 08:33:53;;;;;;;;;;;;;;;5.52;100.00;96269.81;5403236;26;19949;-72
2024/04/18 08:36:19;;;;;;;;;;;;;;;5.39;100.00;96260.94;5433515;26;19984;-72
2024/04/18 08:38:45;;;;;;;;;;;;;;;5.35;100.00;96277.09;5403343;26;19973;-72
2024/04/18 08:41:12;;;;;;;;;;;;;;;5.34;100.00;96276.31;5433510;26;19962;-72
2024/04/18 08:43:39;;;;;;;;;;;;;;;5.41;100.00;96282.34;5433533;26;19970;-72
2024/04/18 08:46:07;;;;;;;;;;;;;;;5.57;100.00;96289.06;5433336;26;20026;-70
2024/04/18 08:48:34;;;;;;;;;;;;;;;6.11;100.00;96279.81;5433424;26;19961;-73
2024/04/18 08:51:01;;;;;;;;;;;;;;;6.19;100.00;96277.03;5433245;26;20174;-72
2024/04/18 08:53:27;;;;;;;;;;;;;;;6.10;100.00;96265.19;5433302;26;19974;-72
2024/04/18 08:55:54;;;;;;;;;;;;;;;6.03;100.00;96259.16;5433213;26;19970;-73
2024/04/18 08:58:20;;;;;;;;;;;;;;;6.13;100.00;96261.38;5433276;26;20083;-72
2024/04/18 09:00:46;;;;;;;;;;;;;;;6.27;100.00;96263.03;5433124;26;19962;-72
2024/04/18 09:03:12;;;;;;;;;;;;;;;6.46;100.00;96266.72;5373718;26;19963;-72
2024/04/18 09:05:38;;;;;;;;;;;;;;;6.63;100.00;96267.16;5433174;26;19973;-69
2024/04/18 09:08:05;;;;;;;;;;;;;;;6.96;100.00;96295.88;5433058;26;19949;-73
2024/04/18 09:10:30;;;;;;;;;;;;;;;7.30;100.00;96261.00;5402550;26;20172;-72
2024/04/18 09:12:58;;;;;;;;;;;;;;;7.50;100.00;96262.81;5433037;26;19976;-72
2024/04/18 09:15:25;;;;;;;;;;;;;;;7.52;100.00;96255.56;5432976;26;19986;-72
2024/04/18 09:18:01;;;;;;;;;;;;;;;7.32;100.00;96252.97;5402470;26;19963;-72
2024/04/18 09:20:27;;;;;;;;;;;;;;;7.06;100.00;96257.19;5432750;26;19977;-71
2024/04/18 09:22:53;;;;;;;;;;;;;;;6.89;100.00;96272.41;5432898;26;19977;-72
2024/04/18 09:25:20;;;;;;;;;;;;;;;6.80;100.00;96275.41;5432782;26;19957;-72
2024/04/18 09:27:46;;;;;;;;;;;;;;;6.70;100.00;96284.41;5401313;26;20175;-69
2024/04/18 09:30:13;;;;;;;;;;;;;;;6.71;100.00;96270.38;5432762;26;19966;-69
2024/04/18 09:32:39;;;;;;;;;;;;;;;7.18;100.00;96295.69;5432810;26;19950;-69
2024/04/18 09:35:07;;;;;;;;;;;;;;;7.83;100.00;96285.41;5432592;26;19952;-69
2024/04/18 09:37:34;;;;;;;;;;;;;;;8.15;100.00;96249.78;5432694;26;20087;-68
2024/04/18 09:40:00;;;;;;;;;;;;;;;8.30;100.00;96258.16;5432526;26;19955;-68
2024/04/18 09:42:40;;;;;;;;;;;;;;;8.56;100.00;96226.91;5432338;26;19966;-72
2024/04/18 09:45:10;;;;;;;;;;;;;;;8.93;100.00;96236.50;5402227;26;20079;-70
2024/04/18 09:47:38;;;;;;;;;;;;;;;9.31;100.00;96222.53;5432552;26;19957;-71
2024/04/18 09:50:03;;;;;;;;;;;;;;;9.65;95.94;96212.53;5432464;26;19961;-71
2024/04/18 09:52:30;;;;;;;;;;;;;;;9.88;93.39;96200.63;5402081;26;19967;-72
2024/04/18 09:54:56;;;;;;;;;;;;;;;10.10;89.42;96188.66;5432475;26;19951;-71
2024/04/18 09:57:22;;;;;;;;;;;;;;;10.27;89.98;96190.69;5432407;26;19953;-70
2024/04/18 09:59:50;;;;;;;;;;;;;;;10.41;95.46;96234.03;5432301;26;20075;-69
2024/04/18 10:02:16;;;;;;;;;;;;;;;10.43;91.40;96203.16;5432242;26;19955;-71
2024/04/18 10:04:42;;;;;;;;;;;;;;;10.14;92.22;96208.16;5432096;26;19981;-74
2024/04/18 10:07:09;;;;;;;;;;;;;;;9.74;92.50;96226.97;5401760;26;20187;-74
2024/04/18 10:09:36;;;;;;;;;;;;;;;9.66;91.57;96229.03;5432172;26;19949;-74
2024/04/18 10:12:02;;;;;;;;;;;;;;;9.93;94.66;96234.78;5432081;26;19952;-73
2024/04/18 10:14:28;;;;;;;;;;;;;;;10.16;91.12;96219.22;5432011;26;20183;-74
2024/04/18 10:16:54;;;;;;;;;;;;;;;10.49;87.49;96204.09;5432071;26;19947;-74
2024/04/18 10:19:23;;;;;;;;;;;;;;;10.90;87.68;96210.38;5431985;26;19977;-69
2024/04/18 10:21:58;;;;;;;;;;;;;;;10.81;88.61;96191.53;5431790;26;19960;-76
2024/04/18 10:24:31;;;;;;;;;;;;;;;10.47;88.12;96206.16;5431851;26;19957;-76
2024/04/18 10:27:18;;;;;;;;;;;;;;;10.06;85.67;96205.06;5431782;26;19953;-76
2024/04/18 10:29:57;;;;;;;;;;;;;;;9.84;85.99;96202.84;5431904;26;19951;-76
2024/04/18 10:32:23;;;;;;;;;;;;;;;10.07;90.36;96240.69;5401368;26;19961;-76
2024/04/18 10:34:51;;;;;;;;;;;;;;;10.15;83.11;96201.09;5431774;26;19968;-77
2024/04/18 10:37:20;;;;;;;;;;;;;;;10.01;80.86;96191.78;5431715;26;19953;-68
2024/04/18 10:39:47;;;;;;;;;;;;;;;9.88;87.12;96235.44;5431394;26;19960;-71
2024/04/18 10:42:20;;;;;;;;;;;;;;;9.68;82.91;96209.50;5431559;26;19966;-71
2024/04/18 10:44:46;;;;;;;;;;;;;;;9.54;82.25;96221.13;5431588;26;20151;-71
2024/04/18 10:47:12;;;;;;;;;;;;;;;9.38;87.30;96235.53;5401260;26;19949;-71
2024/04/18 10:49:38;;;;;;;;;;;;;;;9.48;86.70;96243.72;5431555;26;19974;-71
2024/04/18 10:52:08;;;;;;;;;;;;;;;9.46;87.36;96244.94;5401092;26;20099;-70
2024/04/18 10:54:37;;;;;;;;;;;;;;;9.49;87.94;96247.94;5431496;26;19961;-71
2024/04/18 10:57:03;;;;;;;;;;;;;;;9.49;86.61;96240.09;5431596;26;19972;-75
2024/04/18 10:59:29;;;;;;;;;;;;;;;9.61;86.27;96248.00;5431329;26;19951;-68
2024/04/18 11:02:05;;;;;;;;;;;;;;;9.94;80.27;96216.25;5431491;26;20171;-67
2024/04/18 11:04:31;;;;;;;;;;;;;;;10.01;80.54;96203.06;5431187;26;19974;-68
2024/04/18 11:06:57;;;;;;;;;;;;;;;9.87;77.57;96188.53;5431173;26;19960;-67
2024/04/18 11:09:22;;;;;;;;;;;;;;;9.77;83.62;96225.72;5431207;26;19952;-68
2024/04/18 11:11:49;;;;;;;;;;;;;;;9.67;80.93;96228.81;5431331;26;19977;-68
2024/04/18 11:14:15;;;;;;;;;;;;;;;9.58;84.28;96245.06;5431168;26;19944;-75
2024/04/18 11:16:41;;;;;;;;;;;;;;;9.47;79.41;96218.56;5429996;26;19963;-71
2024/04/18 11:19:08;;;;;;;;;;;;;;;9.49;82.39;96236.66;5430977;26;19951;-71
2024/04/18 11:21:33;;;;;;;;;;;;;;;9.40;77.72;96225.66;5400581;26;19960;-71
2024/04/18 11:23:59;;;;;;;;;;;;;;;9.50;82.94;96248.75;5431074;26;20025;-70
2024/04/18 11:26:25;;;;;;;;;;;;;;;9.78;77.67;96227.31;5430917;26;19956;-71
2024/04/18 11:28:52;;;;;;;;;;;;;;;10.23;84.34;96262.91;5431023;26;20069;-71
2024/04/18 11:31:18;;;;;;;;;;;;;;;10.41;83.01;96264.72;5430969;26;19958;-71
2024/04/18 11:33:44;;;;;;;;;;;;;;;10.23;82.63;96239.31;5430854;26;19954;-69
2024/04/18 11:36:10;;;;;;;;;;;;;;;10.30;83.91;96251.31;5430759;26;20233;-71
2024/04/18 11:38:37;;;;;;;;;;;;;;;10.20;86.42;96260.69;5430917;26;19958;-71
2024/04/18 11:41:05;;;;;;;;;;;;;;;9.97;82.13;96243.81;5400350;26;19984;-71
2024/04/18 11:43:31;;;;;;;;;;;;;;;9.98;85.50;96262.97;5430671;26;20089;-71
2024/04/18 11:45:57;;;;;;;;;;;;;;;10.26;80.22;96239.66;5370870;26;19975;-70
2024/04/18 11:48:23;;;;;;;;;;;;;;;10.61;79.91;96228.56;5430682;26;19983;-70
2024/04/18 11:50:49;;;;;;;;;;;;;;;10.97;81.44;96243.34;5429649;26;19958;-68
2024/04/18 11:53:15;;;;;;;;;;;;;;;11.18;78.03;96213.16;5430538;26;19973;-82
2024/04/18 11:55:41;;;;;;;;;;;;;;;11.15;73.54;96195.25;5430572;26;20016;-81
2024/04/18 11:58:07;;;;;;;;;;;;;;;11.17;73.79;96187.13;5400209;26;19979;-82
2024/04/18 12:00:32;;;;;;;;;;;;;;;11.20;76.07;96228.69;5430446;26;20033;-82
2024/04/18 12:02:59;;;;;;;;;;;;;;;11.35;69.69;96183.59;5430309;26;19977;-81
2024/04/18 12:05:25;;;;;;;;;;;;;;;11.04;73.14;96221.47;5430283;26;19960;-81
2024/04/18 12:07:51;;;;;;;;;;;;;;;10.56;76.63;96242.34;5399842;26;19973;-81
2024/04/18 12:10:17;;;;;;;;;;;;;;;10.13;74.63;96232.75;5430327;26;19956;-71
2024/04/18 12:12:43;;;;;;;;;;;;;;;10.08;79.37;96265.84;5430168;26;20049;-71
2024/04/18 12:15:11;;;;;;;;;;;;;;;10.17;76.80;96248.84;5430137;26;20026;-71
2024/04/18 12:17:37;;;;;;;;;;;;;;;10.27;78.63;96275.34;5430111;26;19981;-71
2024/04/18 12:20:03;;;;;;;;;;;;;;;10.29;76.96;96273.31;5430043;26;19956;-71
2024/04/18 12:22:29;;;;;;;;;;;;;;;10.52;74.31;96254.28;5430022;26;20075;-71
2024/04/18 12:24:55;;;;;;;;;;;;;;;10.80;79.61;96296.69;5429969;26;19975;-71
2024/04/18 12:27:21;;;;;;;;;;;;;;;10.69;85.14;96312.16;5429984;26;19959;-71
2024/04/18 12:29:48;;;;;;;;;;;;;;;10.70;79.72;96294.59;5399476;26;19950;-71
2024/04/18 12:32:16;;;;;;;;;;;;;;;10.69;80.59;96298.25;5429741;26;19955;-71
2024/04/18 12:34:42;;;;;;;;;;;;;;;10.52;74.41;96270.03;5429771;26;20102;-71
2024/04/18 12:37:08;;;;;;;;;;;;;;;10.29;76.44;96285.56;5429769;26;19955;-71
2024/04/18 12:39:34;;;;;;;;;;;;;;;10.25;79.01;96290.47;5429796;26;20058;-71
2024/04/18 12:42:00;;;;;;;;;;;;;;;10.32;80.49;96304.31;5429657;26;19972;-71
2024/04/18 12:44:26;;;;;;;;;;;;;;;10.55;78.28;96300.22;5429684;26;19977;-71